Time;durP1;ratioP1;P1;durP2;ratioP2;P2;SDS_P1;SDS_P2;PMS_P1;PMS_P2;Temp;Humidity;BMP_temperature;BMP_pressure;BME280_temperature;BME280_humidity;BME280_pressure;Samples;Min_cycle;Max_cycle;Signal;HPM_P1;HPM_P2
2022/03/31 00:00:23;;;;;;;0.60;0.10;;;8.00;1.00;;;;;;5052655;28;20564;-74
2022/03/31 00:02:51;;;;;;;0.60;0.10;;;8.00;1.00;;;;;;5053300;28;20815;-74
2022/03/31 00:05:20;;;;;;;0.60;0.10;;;8.00;1.00;;;;;;5050331;28;20453;-74
2022/03/31 00:07:50;;;;;;;0.60;0.10;;;7.90;1.00;;;;;;5017420;28;20481;-76
2022/03/31 00:10:23;;;;;;;0.60;0.40;;;7.70;1.00;;;;;;5014128;28;20475;-74
2022/03/31 00:12:52;;;;;;;0.60;0.10;;;7.70;1.00;;;;;;5045200;28;20456;-73
2022/03/31 00:15:20;;;;;;;1.83;1.30;;;7.70;1.00;;;;;;5054013;28;20452;-74
2022/03/31 00:17:49;;;;;;;0.60;0.10;;;7.70;1.00;;;;;;5045194;28;20952;-75
2022/03/31 00:20:16;;;;;;;0.60;0.10;;;7.60;1.00;;;;;;5040644;28;20464;-76
2022/03/31 00:22:46;;;;;;;0.60;0.10;;;7.60;1.00;;;;;;5055308;28;20967;-75
2022/03/31 00:25:14;;;;;;;0.60;0.20;;;7.60;1.00;;;;;;5035961;28;20446;-76
2022/03/31 00:27:42;;;;;;;0.60;0.10;;;7.60;1.00;;;;;;5034764;28;21007;-76
2022/03/31 00:30:13;;;;;;;0.60;0.10;;;7.50;1.00;;;;;;5034136;28;20473;-75
2022/03/31 00:32:41;;;;;;;0.60;0.10;;;7.50;1.00;;;;;;5034138;28;20431;-75
2022/03/31 00:35:13;;;;;;;0.60;0.10;;;7.50;1.00;;;;;;5051547;28;20464;-73
2022/03/31 00:37:41;;;;;;;0.60;0.10;;;7.50;1.00;;;;;;5051469;28;20527;-74
2022/03/31 00:40:13;;;;;;;0.60;0.20;;;7.50;1.00;;;;;;5034660;28;20469;-75
2022/03/31 00:42:42;;;;;;;0.60;0.10;;;7.50;1.00;;;;;;5040698;28;20458;-75
2022/03/31 00:45:14;;;;;;;0.60;0.10;;;7.50;1.00;;;;;;5039143;28;20479;-76
2022/03/31 00:47:42;;;;;;;0.60;0.20;;;7.50;1.00;;;;;;5039219;28;20485;-74
2022/03/31 00:50:12;;;;;;;0.60;0.10;;;7.40;1.00;;;;;;5034561;28;20489;-75
2022/03/31 00:52:40;;;;;;;0.60;0.10;;;7.50;1.00;;;;;;5045920;28;20446;-74
2022/03/31 00:55:10;;;;;;;0.60;0.10;;;7.60;1.00;;;;;;5049716;28;20465;-77
2022/03/31 00:57:40;;;;;;;0.60;0.10;;;7.60;1.00;;;;;;5020646;28;20446;-74
2022/03/31 01:00:10;;;;;;;0.60;0.10;;;7.60;1.00;;;;;;5018856;28;21043;-75
2022/03/31 01:02:39;;;;;;;0.60;0.10;;;7.60;1.00;;;;;;5054265;28;20448;-75
2022/03/31 01:05:08;;;;;;;0.60;0.10;;;7.60;1.00;;;;;;5056440;28;20447;-76
2022/03/31 01:07:37;;;;;;;0.60;0.10;;;7.70;1.00;;;;;;5039143;28;20488;-76
2022/03/31 01:10:06;;;;;;;6.13;0.80;;;7.70;1.00;;;;;;5036721;28;20465;-75
2022/03/31 01:12:35;;;;;;;0.60;0.10;;;7.60;1.00;;;;;;5035511;28;20481;-75
2022/03/31 01:15:07;;;;;;;0.60;0.10;;;7.50;1.00;;;;;;5038740;28;20453;-74
2022/03/31 01:17:35;;;;;;;0.60;0.10;;;7.50;1.00;;;;;;5052496;28;20436;-75
2022/03/31 01:20:05;;;;;;;0.60;0.10;;;8.90;1.00;;;;;;5047682;28;20465;-74
2022/03/31 01:22:34;;;;;;;0.60;0.40;;;7.60;1.00;;;;;;5032857;28;20447;-75
2022/03/31 01:25:06;;;;;;;0.60;0.30;;;7.60;1.00;;;;;;5033222;28;20450;-75
2022/03/31 01:27:36;;;;;;;0.60;0.10;;;7.60;1.00;;;;;;5051133;28;20481;-75
2022/03/31 01:30:06;;;;;;;0.60;0.10;;;7.60;1.00;;;;;;5053144;28;20461;-75
2022/03/31 01:32:34;;;;;;;0.60;0.10;;;7.60;1.00;;;;;;5052611;28;20455;-74
2022/03/31 01:35:03;;;;;;;0.60;0.30;;;;;;;;;;5050187;28;20454;-76
2022/03/31 01:37:31;;;;;;;0.60;0.10;;;7.50;1.00;;;;;;5044610;28;20450;-75
2022/03/31 01:40:00;;;;;;;0.60;0.10;;;7.40;1.00;;;;;;5039941;28;20467;-75
2022/03/31 01:42:29;;;;;;;0.60;0.10;;;7.50;1.00;;;;;;5032355;28;20765;-75
2022/03/31 01:44:58;;;;;;;0.60;0.10;;;;;;;;;;5031812;28;20458;-75
2022/03/31 01:47:26;;;;;;;0.60;0.10;;;7.40;1.00;;;;;;5032272;28;20482;-75
2022/03/31 01:49:54;;;;;;;0.60;0.10;;;7.50;1.00;;;;;;5032292;28;20477;-73
2022/03/31 01:52:22;;;;;;;0.60;0.10;;;7.40;1.00;;;;;;5032476;28;20892;-73
2022/03/31 01:54:51;;;;;;;0.60;0.10;;;7.50;1.00;;;;;;5033470;28;20466;-75
2022/03/31 01:57:19;;;;;;;0.60;0.60;;;7.50;1.00;;;;;;5048367;28;20455;-76
2022/03/31 01:59:48;;;;;;;0.60;0.10;;;7.60;1.00;;;;;;5050326;28;20468;-74
2022/03/31 02:02:16;;;;;;;0.60;0.10;;;7.50;1.00;;;;;;5052145;28;20551;-74
2022/03/31 02:04:44;;;;;;;0.70;0.40;;;7.50;1.00;;;;;;5050188;28;20444;-75
2022/03/31 02:07:12;;;;;;;0.60;0.10;;;7.40;1.00;;;;;;5050172;28;20540;-75
2022/03/31 02:09:41;;;;;;;0.60;0.10;;;7.50;1.00;;;;;;5043644;28;20489;-74
2022/03/31 02:12:09;;;;;;;0.60;0.10;;;7.50;1.00;;;;;;5031393;28;20542;-75
2022/03/31 02:14:38;;;;;;;0.60;0.10;;;7.50;1.00;;;;;;5047045;28;20937;-74
2022/03/31 02:17:09;;;;;;;0.60;0.10;;;7.50;1.00;;;;;;5032229;28;20446;-75
2022/03/31 02:19:37;;;;;;;0.60;0.10;;;7.30;1.00;;;;;;5030800;28;20469;-74
2022/03/31 02:22:06;;;;;;;0.60;0.10;;;7.30;1.00;;;;;;5036878;28;20481;-75
2022/03/31 02:24:35;;;;;;;0.60;0.10;;;7.30;1.00;;;;;;5037106;28;20449;-76
2022/03/31 02:27:03;;;;;;;0.60;0.10;;;7.30;1.00;;;;;;5045928;28;20450;-74
2022/03/31 02:29:31;;;;;;;0.60;0.10;;;7.30;1.00;;;;;;5029763;28;20540;-76
2022/03/31 02:31:59;;;;;;;0.60;0.10;;;7.30;1.00;;;;;;5032806;28;20460;-75
2022/03/31 02:34:28;;;;;;;0.60;0.10;;;7.40;1.00;;;;;;5032102;28;20475;-74
2022/03/31 02:39:25;;;;;;;0.60;0.10;;;7.40;1.00;;;;;;4989528;28;20937;-66
2022/03/31 02:41:53;;;;;;;0.70;0.20;;;7.40;1.00;;;;;;4991592;28;20911;-67
2022/03/31 02:44:21;;;;;;;1.43;1.27;;;7.40;1.00;;;;;;4991257;28;20534;-67
2022/03/31 02:46:49;;;;;;;2.77;2.67;;;7.40;1.00;;;;;;4990850;28;20836;-67
2022/03/31 02:49:17;;;;;;;0.80;0.63;;;7.30;1.00;;;;;;5010174;28;21038;-67
2022/03/31 02:51:46;;;;;;;0.60;0.10;;;7.30;1.00;;;;;;5009827;28;20451;-67
2022/03/31 02:57:00;;;;;;;0.60;0.10;;;7.30;1.00;;;;;;5010455;28;20828;-68
2022/03/31 02:59:30;;;;;;;0.60;0.10;;;7.30;1.00;;;;;;5011025;28;20451;-68
2022/03/31 03:01:58;;;;;;;0.60;0.10;;;7.30;1.00;;;;;;5010437;28;20956;-69
2022/03/31 03:04:27;;;;;;;0.60;0.20;;;7.40;1.00;;;;;;5011039;28;20454;-68
2022/03/31 03:06:57;;;;;;;0.60;0.10;;;;;;;;;;5010699;28;20476;-67
2022/03/31 03:09:25;;;;;;;2.37;2.27;;;7.50;1.00;;;;;;5010669;28;21020;-66
2022/03/31 03:11:53;;;;;;;0.60;0.10;;;7.50;1.00;;;;;;5010617;28;20479;-67
2022/03/31 03:14:21;;;;;;;0.60;0.10;;;;;;;;;;5010387;28;20945;-67
2022/03/31 03:16:49;;;;;;;0.60;0.10;;;7.40;1.00;;;;;;5010434;28;20473;-68
2022/03/31 03:19:17;;;;;;;0.60;0.10;;;7.40;1.00;;;;;;5011210;28;20486;-67
2022/03/31 03:21:45;;;;;;;0.60;0.10;;;7.40;1.00;;;;;;5010008;28;20473;-67
2022/03/31 03:24:14;;;;;;;0.60;0.20;;;7.40;1.00;;;;;;5009061;28;20477;-68
2022/03/31 03:26:42;;;;;;;2.13;2.00;;;7.50;1.00;;;;;;5009724;28;20466;-68
2022/03/31 03:29:10;;;;;;;0.60;0.13;;;7.50;1.00;;;;;;5019198;28;20522;-68
2022/03/31 03:31:38;;;;;;;0.60;0.17;;;7.40;1.00;;;;;;5026277;28;20450;-67
2022/03/31 03:34:06;;;;;;;0.60;0.10;;;7.40;1.00;;;;;;5032775;28;20450;-67
2022/03/31 03:36:34;;;;;;;0.60;0.10;;;7.40;1.00;;;;;;5032313;28;20842;-68
2022/03/31 03:39:03;;;;;;;0.60;0.43;;;7.30;1.00;;;;;;5029024;28;20484;-68
2022/03/31 03:41:32;;;;;;;11.00;4.73;;;7.20;1.00;;;;;;5025235;28;20962;-68
2022/03/31 03:44:00;;;;;;;0.70;0.40;;;7.20;1.00;;;;;;5034706;28;20465;-67
2022/03/31 03:46:28;;;;;;;0.60;0.10;;;7.10;1.00;;;;;;5015278;28;20470;-67
2022/03/31 03:48:56;;;;;;;1.63;1.07;;;7.10;1.00;;;;;;5013582;28;20592;-67
2022/03/31 03:51:25;;;;;;;0.60;0.10;;;7.10;1.00;;;;;;5014048;28;20469;-68
2022/03/31 03:53:53;;;;;;;0.60;0.10;;;7.10;1.00;;;;;;5013262;28;20450;-67
2022/03/31 03:56:21;;;;;;;0.60;0.13;;;7.10;1.00;;;;;;5013353;28;20463;-68
2022/03/31 03:58:50;;;;;;;0.60;0.10;;;7.00;1.00;;;;;;5013432;28;20854;-68
2022/03/31 04:01:19;;;;;;;0.60;0.10;;;6.90;1.00;;;;;;5024367;28;20532;-67
2022/03/31 04:03:47;;;;;;;0.60;0.20;;;6.90;1.00;;;;;;5017002;28;20446;-67
2022/03/31 04:06:15;;;;;;;0.60;0.20;;;6.80;1.00;;;;;;5013537;28;20938;-67
2022/03/31 04:08:43;;;;;;;0.60;0.20;;;6.80;1.00;;;;;;5012919;28;20957;-67
2022/03/31 04:11:10;;;;;;;0.60;0.10;;;6.70;1.00;;;;;;5013432;28;20446;-67
2022/03/31 04:13:39;;;;;;;0.60;0.10;;;6.70;1.00;;;;;;4993939;28;20945;-67
2022/03/31 04:16:08;;;;;;;0.60;0.17;;;6.70;1.00;;;;;;5003653;28;20845;-68
2022/03/31 04:18:36;;;;;;;0.60;0.20;;;6.70;1.00;;;;;;5013560;28;20478;-68
2022/03/31 04:21:03;;;;;;;0.60;0.20;;;6.60;1.00;;;;;;5013692;28;20456;-66
2022/03/31 04:23:31;;;;;;;0.60;0.10;;;6.70;1.00;;;;;;5021689;28;20446;-67
2022/03/31 04:26:00;;;;;;;0.60;0.10;;;6.70;1.00;;;;;;5012890;28;20454;-67
2022/03/31 04:28:27;;;;;;;0.60;0.20;;;6.70;1.00;;;;;;5012656;28;20977;-67
2022/03/31 04:30:55;;;;;;;2.70;1.90;;;6.70;1.00;;;;;;5010470;28;20482;-67
2022/03/31 04:33:26;;;;;;;0.60;0.10;;;6.70;1.00;;;;;;5012981;28;20451;-67
2022/03/31 04:35:54;;;;;;;0.70;0.40;;;6.70;1.00;;;;;;5019878;28;20448;-67
2022/03/31 04:38:21;;;;;;;2.03;0.83;;;6.70;1.00;;;;;;5030275;28;20504;-68
2022/03/31 04:40:49;;;;;;;1.10;0.50;;;6.70;1.00;;;;;;5012559;28;20860;-67
2022/03/31 04:43:17;;;;;;;0.60;0.10;;;6.70;1.00;;;;;;5012296;28;20473;-68
2022/03/31 04:45:45;;;;;;;0.70;0.63;;;6.80;1.00;;;;;;5012967;28;20447;-67
2022/03/31 04:48:13;;;;;;;0.60;0.10;;;6.80;1.00;;;;;;5012715;28;20833;-67
2022/03/31 04:50:42;;;;;;;0.60;0.40;;;6.70;1.00;;;;;;5012543;28;20489;-68
2022/03/31 04:53:11;;;;;;;0.60;0.20;;;6.70;1.00;;;;;;5010993;28;20464;-67
2022/03/31 04:55:39;;;;;;;0.60;0.20;;;6.70;1.00;;;;;;5021235;28;20956;-68
2022/03/31 04:58:07;;;;;;;0.60;0.10;;;6.70;1.00;;;;;;5018018;28;20493;-67
2022/03/31 05:00:36;;;;;;;0.60;0.20;;;6.60;1.00;;;;;;5012673;28;20944;-67
2022/03/31 05:03:04;;;;;;;1.93;1.43;;;6.50;1.00;;;;;;5012863;28;20568;-67
2022/03/31 05:05:32;;;;;;;0.60;0.30;;;6.60;1.00;;;;;;5022545;28;20860;-67
2022/03/31 05:08:02;;;;;;;2.20;1.60;;;6.70;1.00;;;;;;5012934;28;20541;-67
2022/03/31 05:10:30;;;;;;;1.63;1.53;;;6.70;1.00;;;;;;5012647;28;20500;-68
2022/03/31 05:12:58;;;;;;;0.60;0.30;;;6.70;1.00;;;;;;5012534;28;20453;-67
2022/03/31 05:15:26;;;;;;;1.20;0.40;;;6.60;1.00;;;;;;5012114;28;20454;-68
2022/03/31 05:17:58;;;;;;;0.60;0.27;;;6.40;1.00;;;;;;5012321;28;20460;-67
2022/03/31 05:20:26;;;;;;;0.77;0.60;;;6.30;1.00;;;;;;5011950;28;20819;-66
2022/03/31 05:22:53;;;;;;;0.60;0.30;;;6.30;1.00;;;;;;5012449;28;20453;-67
2022/03/31 05:25:23;;;;;;;0.60;0.10;;;;;;;;;;5012037;28;20458;-68
2022/03/31 05:27:51;;;;;;;0.63;0.30;;;6.20;1.00;;;;;;5012082;28;20529;-67
2022/03/31 05:30:20;;;;;;;0.70;0.60;;;6.20;1.00;;;;;;5012982;28;20475;-68
2022/03/31 05:32:48;;;;;;;0.60;0.10;;;6.20;1.00;;;;;;5012394;28;20454;-68
2022/03/31 05:35:16;;;;;;;2.50;2.03;;;6.20;1.00;;;;;;5012053;28;20479;-68
2022/03/31 05:37:46;;;;;;;0.90;0.57;;;6.10;1.00;;;;;;5011625;28;21027;-67
2022/03/31 05:40:15;;;;;;;1.93;1.33;;;6.10;1.00;;;;;;5011604;28;20447;-68
2022/03/31 05:42:44;;;;;;;1.43;0.43;;;6.10;1.00;;;;;;5011871;28;20458;-68
2022/03/31 05:45:14;;;;;;;2.30;1.57;;;6.10;1.00;;;;;;5007429;28;20907;-69
2022/03/31 05:47:43;;;;;;;1.37;0.73;;;5.90;1.00;;;;;;5009181;28;20471;-68
2022/03/31 05:50:12;;;;;;;0.77;0.63;;;5.90;1.00;;;;;;5011904;28;21000;-67
2022/03/31 05:52:42;;;;;;;0.70;0.50;;;5.90;1.00;;;;;;5006005;28;20961;-67
2022/03/31 05:55:11;;;;;;;0.60;0.30;;;5.90;1.00;;;;;;5010514;28;20828;-68
2022/03/31 05:57:39;;;;;;;0.60;0.10;;;5.90;1.00;;;;;;5011228;28;20981;-66
2022/03/31 06:00:11;;;;;;;6.83;3.90;;;6.00;1.00;;;;;;5011573;28;20452;-67
2022/03/31 06:02:40;;;;;;;0.60;0.10;;;6.00;1.00;;;;;;5012010;28;20961;-68
2022/03/31 06:05:18;;;;;;;2.20;1.20;;;6.00;1.00;;;;;;5007784;28;20457;-67
2022/03/31 06:07:46;;;;;;;6.50;4.87;;;6.00;1.00;;;;;;5015840;28;20539;-68
2022/03/31 06:10:15;;;;;;;0.83;0.70;;;5.90;1.00;;;;;;5011330;28;20482;-68
2022/03/31 06:12:43;;;;;;;0.60;0.10;;;6.00;1.00;;;;;;5011278;28;20461;-69
2022/03/31 06:15:15;;;;;;;1.30;1.07;;;5.90;1.00;;;;;;5011343;28;20483;-67
2022/03/31 06:17:45;;;;;;;0.90;0.57;;;5.90;1.00;;;;;;5011067;28;20470;-67
2022/03/31 06:20:14;;;;;;;0.60;0.20;;;5.90;1.00;;;;;;5006866;28;20483;-67
2022/03/31 06:22:42;;;;;;;2.57;2.47;;;;;;;;;;5005375;28;20454;-68
2022/03/31 06:25:14;;;;;;;3.75;1.42;;;5.80;1.00;;;;;;5014014;28;20982;-68
2022/03/31 06:27:43;;;;;;;0.60;0.10;;;;;;;;;;5022775;28;20258;-66
2022/03/31 06:30:12;;;;;;;0.60;0.20;;;5.90;1.00;;;;;;5030970;28;20482;-67
2022/03/31 06:32:41;;;;;;;3.70;2.00;;;6.00;1.00;;;;;;5031120;28;20507;-72
2022/03/31 06:35:13;;;;;;;1.77;0.47;;;6.00;1.00;;;;;;5031058;28;20863;-67
2022/03/31 06:37:42;;;;;;;1.57;1.47;;;6.00;1.00;;;;;;5017368;28;20497;-67
2022/03/31 06:40:12;;;;;;;4.53;3.60;;;6.10;1.00;;;;;;5013600;28;20487;-67
2022/03/31 06:42:41;;;;;;;1.53;0.50;;;6.00;1.00;;;;;;5011391;28;20465;-67
2022/03/31 06:45:12;;;;;;;0.60;0.20;;;6.00;1.00;;;;;;5018983;28;20465;-66
2022/03/31 06:47:55;;;;;;;0.60;0.10;;;6.10;1.00;;;;;;5008316;28;20553;-67
2022/03/31 06:50:29;;;;;;;1.90;1.80;;;6.20;1.00;;;;;;5006682;28;20477;-67
2022/03/31 06:52:58;;;;;;;0.60;0.10;;;6.20;1.00;;;;;;5014366;28;20445;-67
2022/03/31 06:55:27;;;;;;;0.87;0.63;;;6.20;1.00;;;;;;5010923;28;20443;-67
2022/03/31 06:57:55;;;;;;;2.77;2.60;;;6.20;1.00;;;;;;5009844;28;20463;-68
2022/03/31 07:00:23;;;;;;;1.20;1.10;;;6.30;1.00;;;;;;5011256;28;20794;-68
2022/03/31 07:02:51;;;;;;;2.10;1.30;;;7.50;1.00;;;;;;5005576;28;20545;-68
2022/03/31 07:05:21;;;;;;;2.80;2.07;;;6.30;1.00;;;;;;5020902;28;20967;-67
2022/03/31 07:07:49;;;;;;;0.60;0.10;;;6.30;1.00;;;;;;5020456;28;20461;-67
2022/03/31 07:10:17;;;;;;;1.37;1.27;;;6.40;1.00;;;;;;5016146;28;20807;-67
2022/03/31 07:12:45;;;;;;;2.40;0.60;;;6.40;1.00;;;;;;5014700;28;20447;-67
2022/03/31 07:15:13;;;;;;;0.70;0.57;;;6.40;1.00;;;;;;5014719;28;20458;-66
2022/03/31 07:17:41;;;;;;;0.60;0.20;;;6.40;1.00;;;;;;5014301;28;20476;-66
2022/03/31 07:20:10;;;;;;;6.23;5.67;;;6.40;1.00;;;;;;5015056;28;20545;-67
2022/03/31 07:22:45;;;;;;;1.00;0.60;;;6.50;1.00;;;;;;5019722;28;20449;-67
2022/03/31 07:25:13;;;;;;;11.63;10.47;;;6.40;1.00;;;;;;5016363;28;20444;-67
2022/03/31 07:27:42;;;;;;;2.97;1.50;;;6.50;1.00;;;;;;5014472;28;20545;-67
2022/03/31 07:30:13;;;;;;;1.80;1.70;;;6.50;1.00;;;;;;5013938;28;20447;-66
2022/03/31 07:32:48;;;;;;;1.20;0.90;;;7.30;1.00;;;;;;5019157;28;20831;-67
2022/03/31 07:35:16;;;;;;;0.70;0.60;;;6.60;1.00;;;;;;5015484;28;20442;-68
2022/03/31 07:37:45;;;;;;;2.60;1.23;;;6.50;1.00;;;;;;5015366;28;20501;-67
2022/03/31 07:40:14;;;;;;;0.60;0.37;;;;;;;;;;5025999;28;20449;-73
2022/03/31 07:42:42;;;;;;;1.23;1.13;;;6.60;1.00;;;;;;5033816;28;20900;-67
2022/03/31 07:45:11;;;;;;;0.83;0.83;;;6.60;1.00;;;;;;5033447;28;20448;-67
2022/03/31 07:47:39;;;;;;;4.93;0.83;;;6.60;1.00;;;;;;5033142;28;20459;-66
2022/03/31 07:50:09;;;;;;;2.40;0.93;;;6.70;1.00;;;;;;5031592;28;20926;-67
2022/03/31 07:52:37;;;;;;;8.13;1.43;;;6.60;1.00;;;;;;5009789;28;20494;-66
2022/03/31 07:55:09;;;;;;;2.70;2.47;;;6.60;1.00;;;;;;5008835;28;20474;-67
2022/03/31 07:57:38;;;;;;;1.90;1.03;;;6.60;1.00;;;;;;5012059;28;20471;-68
2022/03/31 08:00:09;;;;;;;2.50;2.30;;;6.60;1.00;;;;;;5012329;28;20449;-67
2022/03/31 08:02:38;;;;;;;0.80;0.77;;;6.60;1.00;;;;;;5011592;28;20443;-67
2022/03/31 08:05:06;;;;;;;0.60;0.10;;;6.60;1.00;;;;;;5010921;28;20964;-66
2022/03/31 08:07:35;;;;;;;0.60;0.10;;;6.80;1.00;;;;;;5011315;28;20996;-65
2022/03/31 08:10:05;;;;;;;0.60;0.10;;;6.80;1.00;;;;;;5011830;28;20469;-68
2022/03/31 08:12:35;;;;;;;0.60;0.10;;;6.80;1.00;;;;;;5010740;28;20486;-67
2022/03/31 08:15:04;;;;;;;1.03;0.73;;;6.90;1.00;;;;;;5017705;28;20462;-67
2022/03/31 08:17:32;;;;;;;0.90;0.50;;;6.90;1.00;;;;;;5031306;28;20983;-66
2022/03/31 08:20:00;;;;;;;3.43;2.67;;;7.00;1.00;;;;;;5015136;28;20948;-67
2022/03/31 08:22:28;;;;;;;8.20;3.13;;;7.00;1.00;;;;;;5015085;28;20443;-67
2022/03/31 08:25:01;;;;;;;0.60;0.10;;;7.10;1.00;;;;;;5017356;28;20847;-68
2022/03/31 08:27:30;;;;;;;1.23;1.07;;;7.10;1.00;;;;;;5013037;28;20473;-68
2022/03/31 08:30:00;;;;;;;2.07;1.90;;;7.10;1.00;;;;;;5013419;28;20447;-68
2022/03/31 08:32:28;;;;;;;1.70;1.60;;;7.20;1.00;;;;;;5013053;28;20508;-66
2022/03/31 08:34:56;;;;;;;0.60;0.20;;;7.20;1.00;;;;;;5013201;28;20449;-67
2022/03/31 08:37:24;;;;;;;0.60;0.10;;;7.30;1.00;;;;;;5012876;28;21003;-67
2022/03/31 08:39:52;;;;;;;0.60;0.30;;;7.30;1.00;;;;;;5013360;28;20442;-67
2022/03/31 08:42:19;;;;;;;1.17;1.07;;;7.40;1.00;;;;;;5013211;28;20938;-66
2022/03/31 08:44:50;;;;;;;0.60;0.40;;;7.40;1.00;;;;;;5013156;28;20557;-66
2022/03/31 08:47:20;;;;;;;1.60;0.83;;;7.50;1.00;;;;;;5013288;28;20457;-67
2022/03/31 08:50:10;;;;;;;1.00;0.87;;;7.50;1.00;;;;;;5013073;28;20491;-67
2022/03/31 08:52:38;;;;;;;0.60;0.30;;;7.40;1.00;;;;;;5020477;28;20483;-67
2022/03/31 08:55:08;;;;;;;0.80;0.47;;;7.50;1.00;;;;;;5013107;28;20474;-67
2022/03/31 08:57:40;;;;;;;3.93;3.40;;;7.50;1.00;;;;;;5009358;28;20485;-67
2022/03/31 09:00:09;;;;;;;0.83;0.63;;;7.50;1.00;;;;;;5021847;28;20454;-67
2022/03/31 09:02:39;;;;;;;1.87;0.80;;;7.60;1.00;;;;;;5013243;28;20806;-66
2022/03/31 09:05:10;;;;;;;3.20;2.57;;;7.60;1.00;;;;;;5010095;28;20457;-66
2022/03/31 09:07:55;;;;;;;3.17;2.23;;;7.60;1.00;;;;;;5019353;28;20474;-66
2022/03/31 09:10:31;;;;;;;0.60;0.20;;;7.60;1.00;;;;;;5013011;28;20438;-66
2022/03/31 09:13:01;;;;;;;2.10;1.77;;;7.60;1.00;;;;;;5012671;28;20478;-67
2022/03/31 09:15:32;;;;;;;1.13;1.03;;;7.60;1.00;;;;;;5013014;28;20475;-66
2022/03/31 09:18:02;;;;;;;3.23;2.23;;;7.70;1.00;;;;;;5012576;28;20463;-67
2022/03/31 09:20:42;;;;;;;0.90;0.70;;;7.70;1.00;;;;;;5012900;28;20457;-66
2022/03/31 09:23:15;;;;;;;0.80;0.63;;;7.90;1.00;;;;;;5011263;28;20454;-67
2022/03/31 09:25:43;;;;;;;0.60;0.10;;;8.00;1.00;;;;;;5017222;28;20451;-67
2022/03/31 09:28:16;;;;;;;4.03;3.50;;;8.10;1.00;;;;;;5019103;28;20482;-67
2022/03/31 09:30:45;;;;;;;7.60;3.97;;;8.10;1.00;;;;;;5014183;28;20448;-67
2022/03/31 09:33:26;;;;;;;1.60;1.50;;;8.00;1.00;;;;;;5020341;28;20520;-67
2022/03/31 09:35:58;;;;;;;5.60;4.00;;;8.10;1.00;;;;;;5012519;28;20825;-67
2022/03/31 09:38:26;;;;;;;3.53;1.90;;;8.10;1.00;;;;;;5012428;28;20483;-65
2022/03/31 09:40:53;;;;;;;0.60;0.10;;;8.10;1.00;;;;;;5012744;28;20447;-67
2022/03/31 09:43:22;;;;;;;0.63;0.40;;;8.10;1.00;;;;;;5012731;28;20538;-66
2022/03/31 09:45:50;;;;;;;1.43;1.33;;;8.20;1.00;;;;;;5012170;28;20869;-66
2022/03/31 09:48:21;;;;;;;5.03;4.00;;;8.20;1.00;;;;;;5011823;28;20461;-67
2022/03/31 09:50:49;;;;;;;0.87;0.57;;;8.10;1.00;;;;;;5012446;28;20482;-67
2022/03/31 09:53:18;;;;;;;0.70;0.40;;;8.20;1.00;;;;;;5011604;28;20485;-67
2022/03/31 09:55:47;;;;;;;0.80;0.40;;;8.20;1.00;;;;;;5012186;28;20802;-66
2022/03/31 09:58:21;;;;;;;0.60;0.17;;;8.20;1.00;;;;;;5011123;28;20835;-67
2022/03/31 10:00:48;;;;;;;1.73;0.93;;;8.30;1.00;;;;;;5048292;23;20497;-76
2022/03/31 10:03:17;;;;;;;2.20;2.10;;;8.40;1.00;;;;;;5044559;28;20457;-75
2022/03/31 10:05:48;;;;;;;0.80;0.47;;;8.40;1.00;;;;;;5051106;28;20892;-75
2022/03/31 10:08:18;;;;;;;1.40;1.30;;;8.50;1.00;;;;;;5051670;28;20823;-76
2022/03/31 10:10:47;;;;;;;5.33;3.07;;;8.60;1.00;;;;;;5051820;28;20459;-75
2022/03/31 10:13:21;;;;;;;0.70;0.67;;;8.50;1.00;;;;;;5049421;28;20564;-75
2022/03/31 10:15:56;;;;;;;0.60;0.10;;;8.50;1.00;;;;;;5052705;28;20451;-76
2022/03/31 10:18:24;;;;;;;1.40;0.70;;;8.60;1.00;;;;;;5053127;28;20445;-74
2022/03/31 10:20:58;;;;;;;0.80;0.20;;;8.60;1.00;;;;;;5053798;28;20466;-76
2022/03/31 10:26:27;;;;;;;0.60;0.20;;;8.60;1.00;;;;;;5054446;28;20546;-76
2022/03/31 10:28:56;;;;;;;1.13;1.03;;;8.60;1.00;;;;;;5058288;28;20451;-75
2022/03/31 10:31:56;;;;;;;2.70;2.50;;;8.70;1.00;;;;;;5060082;28;20672;-77
2022/03/31 10:34:36;;;;;;;2.20;0.83;;;;;;;;;;5058440;28;20477;-76
2022/03/31 10:37:08;;;;;;;0.60;0.10;;;8.60;1.00;;;;;;5055463;28;20442;-75
2022/03/31 10:39:36;;;;;;;1.43;0.97;;;8.70;1.00;;;;;;5050978;28;20442;-76
2022/03/31 10:42:05;;;;;;;0.60;0.10;;;8.70;1.00;;;;;;5051016;28;20466;-76
2022/03/31 10:44:33;;;;;;;0.60;0.20;;;8.80;1.00;;;;;;5051554;28;20449;-77
2022/03/31 10:47:03;;;;;;;2.40;2.30;;;8.80;1.00;;;;;;5064016;28;20438;-77
2022/03/31 10:49:32;;;;;;;8.53;5.07;;;8.80;1.00;;;;;;5063026;28;20454;-76
2022/03/31 10:52:11;;;;;;;0.80;0.63;;;8.80;1.00;;;;;;5056470;28;20970;-76
2022/03/31 10:54:41;;;;;;;2.20;1.50;;;8.80;1.00;;;;;;5045372;28;20942;-76
2022/03/31 10:57:11;;;;;;;1.30;0.53;;;8.80;1.00;;;;;;5050303;28;20536;-76
2022/03/31 10:59:40;;;;;;;3.07;2.93;;;8.80;1.00;;;;;;5049418;28;20827;-76
2022/03/31 11:02:11;;;;;;;3.53;2.73;;;8.80;1.00;;;;;;5049776;28;20454;-76
2022/03/31 11:04:50;;;;;;;0.60;0.10;;;8.90;1.00;;;;;;5049434;28;20446;-75
2022/03/31 11:07:20;;;;;;;0.60;0.10;;;9.00;1.00;;;;;;5049338;28;20538;-76
2022/03/31 11:10:01;;;;;;;1.63;1.53;;;9.20;1.00;;;;;;5050160;28;20436;-76
2022/03/31 11:12:30;;;;;;;0.73;0.57;;;9.20;1.00;;;;;;5050010;28;20510;-76
2022/03/31 11:15:00;;;;;;;4.33;3.20;;;9.20;1.00;;;;;;5051237;28;20704;-77
2022/03/31 11:17:29;;;;;;;1.70;1.60;;;9.10;1.00;;;;;;5050316;28;20850;-76
2022/03/31 11:19:58;;;;;;;0.97;0.87;;;9.00;1.00;;;;;;5051068;28;20557;-76
2022/03/31 11:22:27;;;;;;;7.13;4.23;;;9.00;1.00;;;;;;5051551;28;20497;-76
2022/03/31 11:25:07;;;;;;;4.23;3.40;;;10.70;1.00;;;;;;5051126;28;20446;-78
2022/03/31 11:27:41;;;;;;;2.30;1.80;;;8.90;1.00;;;;;;5050780;28;20466;-77
2022/03/31 11:30:12;;;;;;;4.57;2.40;;;8.80;1.00;;;;;;5069466;28;20821;-76
2022/03/31 11:32:42;;;;;;;3.67;2.43;;;8.90;1.00;;;;;;5071330;28;20522;-75
2022/03/31 11:35:11;;;;;;;1.60;1.00;;;8.90;1.00;;;;;;5073376;28;20451;-76
2022/03/31 11:37:47;;;;;;;2.13;1.90;;;9.00;1.00;;;;;;5071899;28;20827;-78
2022/03/31 11:40:21;;;;;;;0.70;0.33;;;9.00;1.00;;;;;;5031257;28;20465;-76
2022/03/31 11:42:51;;;;;;;4.47;2.60;;;9.10;1.00;;;;;;5030916;28;20513;-75
2022/03/31 11:45:27;;;;;;;0.90;0.60;;;9.10;1.00;;;;;;5038574;28;20438;-76
2022/03/31 11:47:57;;;;;;;0.60;0.20;;;9.20;1.00;;;;;;5051054;28;20453;-75
2022/03/31 11:50:26;;;;;;;1.27;1.17;;;9.30;1.00;;;;;;5050936;28;20537;-77
2022/03/31 11:52:55;;;;;;;0.60;0.13;;;9.30;1.00;;;;;;5054505;28;21098;-77
2022/03/31 11:55:25;;;;;;;2.50;2.30;;;9.30;1.00;;;;;;5054400;28;20454;-74
2022/03/31 11:57:55;;;;;;;3.13;1.57;;;9.30;1.00;;;;;;5055050;28;20506;-76
2022/03/31 12:00:25;;;;;;;3.10;2.77;;;9.40;1.00;;;;;;5052631;28;20503;-77
2022/03/31 12:03:01;;;;;;;9.70;2.30;;;9.40;1.00;;;;;;5054796;28;20469;-78
2022/03/31 12:05:31;;;;;;;0.60;0.10;;;9.40;1.00;;;;;;5046327;28;20473;-76
2022/03/31 12:08:00;;;;;;;1.97;1.70;;;9.40;1.00;;;;;;5054399;28;20469;-75
2022/03/31 12:10:31;;;;;;;0.60;0.30;;;9.50;1.00;;;;;;5034791;28;20466;-76
2022/03/31 12:13:01;;;;;;;0.60;0.10;;;9.50;1.00;;;;;;5056739;28;20470;-76
2022/03/31 12:15:31;;;;;;;1.03;1.03;;;9.50;1.00;;;;;;5046740;28;20439;-75
2022/03/31 12:18:02;;;;;;;0.60;0.30;;;9.60;1.00;;;;;;5045602;28;20468;-74
2022/03/31 12:20:31;;;;;;;0.70;0.60;;;9.70;1.00;;;;;;5046483;28;20940;-74
2022/03/31 12:23:00;;;;;;;0.60;0.20;;;9.70;1.00;;;;;;5063272;28;20452;-77
2022/03/31 12:25:34;;;;;;;2.00;1.47;;;9.80;1.00;;;;;;5061295;28;20442;-76
2022/03/31 12:28:04;;;;;;;0.60;0.20;;;9.80;1.00;;;;;;5052916;28;20463;-78
2022/03/31 12:30:43;;;;;;;0.60;0.20;;;10.00;1.00;;;;;;5048144;28;20489;-76
2022/03/31 12:33:21;;;;;;;0.60;0.10;;;10.00;1.00;;;;;;5057522;28;20980;-76
2022/03/31 12:35:57;;;;;;;0.60;0.10;;;10.10;1.00;;;;;;5060758;28;20438;-74
2022/03/31 12:38:40;;;;;;;1.23;1.13;;;10.20;1.00;;;;;;5060152;28;20769;-77
2022/03/31 12:41:16;;;;;;;0.60;0.10;;;10.20;1.00;;;;;;5053800;28;20549;-75
2022/03/31 12:43:59;;;;;;;0.60;0.20;;;10.30;1.00;;;;;;5054148;28;20492;-77
2022/03/31 12:46:30;;;;;;;1.33;0.70;;;10.20;1.00;;;;;;5055138;28;20445;-76
2022/03/31 12:49:02;;;;;;;2.50;0.60;;;10.20;1.00;;;;;;5054220;28;20474;-75
2022/03/31 12:51:48;;;;;;;0.60;0.10;;;10.20;1.00;;;;;;5055177;28;20833;-77
2022/03/31 12:54:28;;;;;;;4.07;3.77;;;10.20;1.00;;;;;;5040116;28;20485;-75
2022/03/31 12:57:00;;;;;;;3.90;2.40;;;10.20;1.00;;;;;;5054148;28;20920;-76
2022/03/31 12:59:31;;;;;;;0.60;0.10;;;10.20;1.00;;;;;;5054336;28;20530;-77
2022/03/31 13:02:01;;;;;;;0.60;0.20;;;10.10;1.00;;;;;;5052130;28;20474;-76
2022/03/31 13:04:30;;;;;;;0.80;0.60;;;10.10;1.00;;;;;;5045440;28;20445;-75
2022/03/31 13:06:58;;;;;;;0.60;0.20;;;10.10;1.00;;;;;;5053994;28;20474;-78
2022/03/31 13:09:26;;;;;;;1.30;1.20;;;10.10;1.00;;;;;;5059238;28;20453;-76
2022/03/31 13:11:56;;;;;;;5.80;2.23;;;10.20;1.00;;;;;;5058510;28;20939;-75
2022/03/31 13:14:26;;;;;;;2.00;1.90;;;10.10;1.00;;;;;;5052650;28;20944;-77
2022/03/31 13:16:54;;;;;;;0.60;0.10;;;10.10;1.00;;;;;;5055483;28;20533;-76
2022/03/31 13:19:21;;;;;;;0.70;0.37;;;10.10;1.00;;;;;;5058374;28;20533;-76
2022/03/31 13:21:49;;;;;;;2.63;1.90;;;10.10;1.00;;;;;;5057636;28;20458;-75
2022/03/31 13:24:17;;;;;;;0.60;0.20;;;10.00;1.00;;;;;;5057758;28;20465;-77
2022/03/31 13:26:45;;;;;;;0.80;0.40;;;10.10;1.00;;;;;;5049886;28;20960;-76
2022/03/31 13:29:13;;;;;;;3.23;2.57;;;10.10;1.00;;;;;;5052872;28;20749;-76
2022/03/31 13:31:43;;;;;;;0.70;0.13;;;10.10;1.00;;;;;;5052963;28;20471;-76